sensor_id;sensor_type;location;lat;lon;timestamp;P1;durP1;ratioP1;P2;durP2;ratioP2
22026;SDS011;11177;50.966;10.070;2023-05-14T00:01:16;10.85;;;6.82;;
22026;SDS011;11177;50.966;10.070;2023-05-14T00:03:43;8.05;;;7.25;;
22026;SDS011;11177;50.966;10.070;2023-05-14T00:06:10;8.77;;;7.10;;
22026;SDS011;11177;50.966;10.070;2023-05-14T00:08:36;7.68;;;6.70;;
22026;SDS011;11177;50.966;10.070;2023-05-14T00:11:03;7.80;;;6.97;;
22026;SDS011;11177;50.966;10.070;2023-05-14T00:13:30;9.10;;;7.28;;
22026;SDS011;11177;50.966;10.070;2023-05-14T00:15:57;9.18;;;7.10;;
22026;SDS011;11177;50.966;10.070;2023-05-14T00:18:24;8.20;;;7.35;;
22026;SDS011;11177;50.966;10.070;2023-05-14T00:20:51;11.95;;;7.32;;
22026;SDS011;11177;50.966;10.070;2023-05-14T00:23:23;10.77;;;7.82;;
22026;SDS011;11177;50.966;10.070;2023-05-14T00:25:50;10.45;;;7.68;;
22026;SDS011;11177;50.966;10.070;2023-05-14T00:28:16;9.18;;;7.18;;
22026;SDS011;11177;50.966;10.070;2023-05-14T00:30:43;8.45;;;7.25;;
22026;SDS011;11177;50.966;10.070;2023-05-14T00:33:10;9.70;;;8.13;;
22026;SDS011;11177;50.966;10.070;2023-05-14T00:35:37;14.25;;;9.95;;
22026;SDS011;11177;50.966;10.070;2023-05-14T00:38:04;11.30;;;9.10;;
22026;SDS011;11177;50.966;10.070;2023-05-14T00:40:31;11.30;;;8.63;;
22026;SDS011;11177;50.966;10.070;2023-05-14T00:42:58;12.50;;;9.05;;
22026;SDS011;11177;50.966;10.070;2023-05-14T00:45:24;12.65;;;10.18;;
22026;SDS011;11177;50.966;10.070;2023-05-14T00:47:51;14.15;;;10.15;;
22026;SDS011;11177;50.966;10.070;2023-05-14T00:50:19;12.18;;;8.77;;
22026;SDS011;11177;50.966;10.070;2023-05-14T00:52:46;12.95;;;9.32;;
22026;SDS011;11177;50.966;10.070;2023-05-14T00:55:13;13.27;;;8.98;;
22026;SDS011;11177;50.966;10.070;2023-05-14T00:57:42;12.90;;;8.57;;
22026;SDS011;11177;50.966;10.070;2023-05-14T01:02:50;12.55;;;9.40;;
22026;SDS011;11177;50.966;10.070;2023-05-14T01:05:17;11.82;;;8.98;;
22026;SDS011;11177;50.966;10.070;2023-05-14T01:08:00;11.75;;;8.35;;
22026;SDS011;11177;50.966;10.070;2023-05-14T01:10:37;12.93;;;8.52;;
22026;SDS011;11177;50.966;10.070;2023-05-14T01:13:10;11.60;;;8.10;;
22026;SDS011;11177;50.966;10.070;2023-05-14T01:15:39;9.60;;;8.45;;
22026;SDS011;11177;50.966;10.070;2023-05-14T01:18:09;9.50;;;8.40;;
22026;SDS011;11177;50.966;10.070;2023-05-14T01:20:36;10.77;;;8.45;;
22026;SDS011;11177;50.966;10.070;2023-05-14T01:23:03;12.25;;;8.60;;
22026;SDS011;11177;50.966;10.070;2023-05-14T01:25:30;11.15;;;8.68;;
22026;SDS011;11177;50.966;10.070;2023-05-14T01:28:19;13.05;;;8.98;;
22026;SDS011;11177;50.966;10.070;2023-05-14T01:30:55;10.25;;;7.97;;
22026;SDS011;11177;50.966;10.070;2023-05-14T01:33:24;11.30;;;8.47;;
22026;SDS011;11177;50.966;10.070;2023-05-14T01:35:51;10.00;;;8.38;;
22026;SDS011;11177;50.966;10.070;2023-05-14T01:38:19;10.25;;;7.78;;
22026;SDS011;11177;50.966;10.070;2023-05-14T01:40:47;8.50;;;7.60;;
22026;SDS011;11177;50.966;10.070;2023-05-14T01:43:14;9.63;;;7.60;;
22026;SDS011;11177;50.966;10.070;2023-05-14T01:45:42;9.30;;;7.78;;
22026;SDS011;11177;50.966;10.070;2023-05-14T01:48:09;10.05;;;8.75;;
22026;SDS011;11177;50.966;10.070;2023-05-14T01:50:36;11.40;;;8.43;;
22026;SDS011;11177;50.966;10.070;2023-05-14T01:53:03;13.35;;;8.88;;
22026;SDS011;11177;50.966;10.070;2023-05-14T01:55:30;10.18;;;9.18;;
22026;SDS011;11177;50.966;10.070;2023-05-14T01:57:56;12.88;;;9.45;;
22026;SDS011;11177;50.966;10.070;2023-05-14T02:00:23;12.10;;;9.15;;
22026;SDS011;11177;50.966;10.070;2023-05-14T02:02:51;12.00;;;8.90;;
22026;SDS011;11177;50.966;10.070;2023-05-14T02:05:18;11.25;;;8.80;;
22026;SDS011;11177;50.966;10.070;2023-05-14T02:07:45;10.73;;;8.63;;
22026;SDS011;11177;50.966;10.070;2023-05-14T02:10:12;14.00;;;9.15;;
22026;SDS011;11177;50.966;10.070;2023-05-14T02:12:39;12.50;;;8.50;;
22026;SDS011;11177;50.966;10.070;2023-05-14T02:15:06;10.63;;;8.88;;
22026;SDS011;11177;50.966;10.070;2023-05-14T02:17:34;11.60;;;8.82;;
22026;SDS011;11177;50.966;10.070;2023-05-14T02:20:01;9.65;;;8.65;;
22026;SDS011;11177;50.966;10.070;2023-05-14T02:22:28;10.95;;;9.23;;
22026;SDS011;11177;50.966;10.070;2023-05-14T02:24:54;13.90;;;9.05;;
22026;SDS011;11177;50.966;10.070;2023-05-14T02:27:21;10.73;;;8.82;;
22026;SDS011;11177;50.966;10.070;2023-05-14T02:29:48;12.77;;;8.50;;
22026;SDS011;11177;50.966;10.070;2023-05-14T02:32:15;10.02;;;8.95;;
22026;SDS011;11177;50.966;10.070;2023-05-14T02:34:42;12.60;;;8.70;;
22026;SDS011;11177;50.966;10.070;2023-05-14T02:37:08;9.60;;;7.60;;
22026;SDS011;11177;50.966;10.070;2023-05-14T02:39:35;10.90;;;7.50;;
22026;SDS011;11177;50.966;10.070;2023-05-14T02:42:02;9.40;;;7.70;;
22026;SDS011;11177;50.966;10.070;2023-05-14T02:44:29;10.00;;;7.47;;
22026;SDS011;11177;50.966;10.070;2023-05-14T02:46:57;9.95;;;7.88;;
22026;SDS011;11177;50.966;10.070;2023-05-14T02:49:24;9.80;;;8.13;;
22026;SDS011;11177;50.966;10.070;2023-05-14T02:51:50;11.45;;;8.65;;
22026;SDS011;11177;50.966;10.070;2023-05-14T02:54:19;9.68;;;8.60;;
22026;SDS011;11177;50.966;10.070;2023-05-14T02:56:46;10.55;;;8.73;;
22026;SDS011;11177;50.966;10.070;2023-05-14T02:59:13;10.05;;;8.32;;
22026;SDS011;11177;50.966;10.070;2023-05-14T03:01:40;12.93;;;8.57;;
22026;SDS011;11177;50.966;10.070;2023-05-14T03:04:07;10.75;;;7.35;;
22026;SDS011;11177;50.966;10.070;2023-05-14T03:06:34;10.10;;;7.28;;
22026;SDS011;11177;50.966;10.070;2023-05-14T03:09:01;13.15;;;8.73;;
22026;SDS011;11177;50.966;10.070;2023-05-14T03:11:28;10.57;;;9.18;;
22026;SDS011;11177;50.966;10.070;2023-05-14T03:13:55;10.70;;;8.80;;
22026;SDS011;11177;50.966;10.070;2023-05-14T03:16:21;11.27;;;8.65;;
22026;SDS011;11177;50.966;10.070;2023-05-14T03:18:48;11.05;;;8.02;;
22026;SDS011;11177;50.966;10.070;2023-05-14T03:21:15;8.95;;;7.40;;
22026;SDS011;11177;50.966;10.070;2023-05-14T03:23:42;9.43;;;7.43;;
22026;SDS011;11177;50.966;10.070;2023-05-14T03:26:09;8.23;;;7.30;;
22026;SDS011;11177;50.966;10.070;2023-05-14T03:28:36;7.95;;;7.03;;
22026;SDS011;11177;50.966;10.070;2023-05-14T03:31:03;10.98;;;7.65;;
22026;SDS011;11177;50.966;10.070;2023-05-14T03:33:30;10.55;;;7.97;;
22026;SDS011;11177;50.966;10.070;2023-05-14T03:35:57;10.05;;;8.13;;
22026;SDS011;11177;50.966;10.070;2023-05-14T03:38:24;9.65;;;7.88;;
22026;SDS011;11177;50.966;10.070;2023-05-14T03:40:50;10.77;;;8.15;;
22026;SDS011;11177;50.966;10.070;2023-05-14T03:43:17;9.63;;;7.93;;
22026;SDS011;11177;50.966;10.070;2023-05-14T03:45:44;9.73;;;8.52;;
22026;SDS011;11177;50.966;10.070;2023-05-14T03:48:11;12.63;;;8.73;;
22026;SDS011;11177;50.966;10.070;2023-05-14T03:50:38;10.32;;;8.68;;
22026;SDS011;11177;50.966;10.070;2023-05-14T03:53:05;9.80;;;8.80;;
22026;SDS011;11177;50.966;10.070;2023-05-14T03:55:32;10.35;;;8.63;;
22026;SDS011;11177;50.966;10.070;2023-05-14T03:57:59;10.93;;;9.00;;
22026;SDS011;11177;50.966;10.070;2023-05-14T04:00:27;11.32;;;8.88;;
22026;SDS011;11177;50.966;10.070;2023-05-14T04:02:54;11.38;;;9.20;;
22026;SDS011;11177;50.966;10.070;2023-05-14T04:05:21;9.23;;;8.30;;
22026;SDS011;11177;50.966;10.070;2023-05-14T04:07:49;10.95;;;9.00;;
22026;SDS011;11177;50.966;10.070;2023-05-14T04:10:18;11.40;;;8.80;;
22026;SDS011;11177;50.966;10.070;2023-05-14T04:12:44;12.13;;;10.05;;
22026;SDS011;11177;50.966;10.070;2023-05-14T04:15:11;11.48;;;9.45;;
22026;SDS011;11177;50.966;10.070;2023-05-14T04:17:38;12.85;;;9.30;;
22026;SDS011;11177;50.966;10.070;2023-05-14T04:20:06;10.20;;;9.05;;
22026;SDS011;11177;50.966;10.070;2023-05-14T04:22:33;12.65;;;8.10;;
22026;SDS011;11177;50.966;10.070;2023-05-14T04:25:00;11.68;;;8.73;;
22026;SDS011;11177;50.966;10.070;2023-05-14T04:27:27;9.18;;;8.27;;
22026;SDS011;11177;50.966;10.070;2023-05-14T04:29:54;11.63;;;9.30;;
22026;SDS011;11177;50.966;10.070;2023-05-14T04:32:21;14.18;;;11.25;;
22026;SDS011;11177;50.966;10.070;2023-05-14T04:34:49;10.57;;;9.48;;
22026;SDS011;11177;50.966;10.070;2023-05-14T04:37:16;13.05;;;10.00;;
22026;SDS011;11177;50.966;10.070;2023-05-14T04:39:43;12.73;;;10.43;;
22026;SDS011;11177;50.966;10.070;2023-05-14T04:42:11;13.23;;;9.85;;
22026;SDS011;11177;50.966;10.070;2023-05-14T04:44:38;14.65;;;9.73;;
22026;SDS011;11177;50.966;10.070;2023-05-14T04:47:04;10.35;;;9.27;;
22026;SDS011;11177;50.966;10.070;2023-05-14T04:49:32;11.82;;;9.35;;
22026;SDS011;11177;50.966;10.070;2023-05-14T04:51:59;10.73;;;9.60;;
22026;SDS011;11177;50.966;10.070;2023-05-14T04:54:27;9.95;;;8.80;;
22026;SDS011;11177;50.966;10.070;2023-05-14T04:56:54;10.90;;;9.38;;
22026;SDS011;11177;50.966;10.070;2023-05-14T04:59:21;10.43;;;8.75;;
22026;SDS011;11177;50.966;10.070;2023-05-14T05:01:48;11.70;;;9.60;;
22026;SDS011;11177;50.966;10.070;2023-05-14T05:04:17;11.45;;;9.20;;
22026;SDS011;11177;50.966;10.070;2023-05-14T05:06:47;10.23;;;9.20;;
22026;SDS011;11177;50.966;10.070;2023-05-14T05:09:16;12.15;;;9.05;;
22026;SDS011;11177;50.966;10.070;2023-05-14T05:11:43;10.77;;;9.23;;
22026;SDS011;11177;50.966;10.070;2023-05-14T05:14:10;10.43;;;9.32;;
22026;SDS011;11177;50.966;10.070;2023-05-14T05:16:37;10.30;;;9.20;;
22026;SDS011;11177;50.966;10.070;2023-05-14T05:19:04;10.93;;;9.20;;
22026;SDS011;11177;50.966;10.070;2023-05-14T05:21:31;12.65;;;9.20;;
22026;SDS011;11177;50.966;10.070;2023-05-14T05:23:58;12.13;;;9.35;;
22026;SDS011;11177;50.966;10.070;2023-05-14T05:26:25;9.52;;;8.52;;
22026;SDS011;11177;50.966;10.070;2023-05-14T05:28:52;11.18;;;8.40;;
22026;SDS011;11177;50.966;10.070;2023-05-14T05:31:19;10.98;;;9.55;;
22026;SDS011;11177;50.966;10.070;2023-05-14T05:33:46;10.10;;;9.07;;
22026;SDS011;11177;50.966;10.070;2023-05-14T05:36:13;10.80;;;9.45;;
22026;SDS011;11177;50.966;10.070;2023-05-14T05:38:40;11.27;;;9.52;;
22026;SDS011;11177;50.966;10.070;2023-05-14T05:41:08;10.23;;;9.15;;
22026;SDS011;11177;50.966;10.070;2023-05-14T05:43:34;10.65;;;9.02;;
22026;SDS011;11177;50.966;10.070;2023-05-14T05:46:02;10.35;;;9.02;;
22026;SDS011;11177;50.966;10.070;2023-05-14T05:48:28;11.02;;;9.30;;
22026;SDS011;11177;50.966;10.070;2023-05-14T05:50:56;9.55;;;8.15;;
22026;SDS011;11177;50.966;10.070;2023-05-14T05:53:23;9.73;;;8.60;;
22026;SDS011;11177;50.966;10.070;2023-05-14T05:55:50;9.98;;;8.98;;
22026;SDS011;11177;50.966;10.070;2023-05-14T05:58:17;10.00;;;8.88;;
22026;SDS011;11177;50.966;10.070;2023-05-14T06:00:45;9.15;;;8.25;;
22026;SDS011;11177;50.966;10.070;2023-05-14T06:03:12;9.38;;;8.40;;
22026;SDS011;11177;50.966;10.070;2023-05-14T06:05:39;9.45;;;8.38;;
22026;SDS011;11177;50.966;10.070;2023-05-14T06:08:07;9.43;;;8.43;;
22026;SDS011;11177;50.966;10.070;2023-05-14T06:10:34;9.68;;;8.27;;
22026;SDS011;11177;50.966;10.070;2023-05-14T06:13:01;9.57;;;8.35;;
22026;SDS011;11177;50.966;10.070;2023-05-14T06:15:29;10.65;;;8.57;;
22026;SDS011;11177;50.966;10.070;2023-05-14T06:17:56;10.95;;;8.90;;
22026;SDS011;11177;50.966;10.070;2023-05-14T06:20:23;12.00;;;9.23;;
22026;SDS011;11177;50.966;10.070;2023-05-14T06:22:50;10.43;;;9.30;;
22026;SDS011;11177;50.966;10.070;2023-05-14T06:25:17;10.25;;;9.20;;
22026;SDS011;11177;50.966;10.070;2023-05-14T06:27:45;12.20;;;9.45;;
22026;SDS011;11177;50.966;10.070;2023-05-14T06:30:12;10.48;;;9.35;;
22026;SDS011;11177;50.966;10.070;2023-05-14T06:32:39;12.02;;;9.23;;
22026;SDS011;11177;50.966;10.070;2023-05-14T06:35:06;10.75;;;9.65;;
22026;SDS011;11177;50.966;10.070;2023-05-14T06:37:34;12.88;;;10.10;;
22026;SDS011;11177;50.966;10.070;2023-05-14T06:40:01;11.45;;;9.70;;
22026;SDS011;11177;50.966;10.070;2023-05-14T06:42:29;10.18;;;8.98;;
22026;SDS011;11177;50.966;10.070;2023-05-14T06:44:56;12.52;;;9.10;;
22026;SDS011;11177;50.966;10.070;2023-05-14T06:47:23;10.35;;;8.77;;
22026;SDS011;11177;50.966;10.070;2023-05-14T06:49:50;9.75;;;8.75;;
22026;SDS011;11177;50.966;10.070;2023-05-14T06:52:17;10.05;;;9.05;;
22026;SDS011;11177;50.966;10.070;2023-05-14T06:54:44;10.05;;;8.80;;
22026;SDS011;11177;50.966;10.070;2023-05-14T06:57:11;9.77;;;8.55;;
22026;SDS011;11177;50.966;10.070;2023-05-14T06:59:38;10.50;;;8.25;;
22026;SDS011;11177;50.966;10.070;2023-05-14T07:02:05;11.45;;;8.30;;
22026;SDS011;11177;50.966;10.070;2023-05-14T07:04:32;8.75;;;7.47;;
22026;SDS011;11177;50.966;10.070;2023-05-14T07:07:00;9.57;;;7.45;;
22026;SDS011;11177;50.966;10.070;2023-05-14T07:09:27;8.38;;;7.40;;
22026;SDS011;11177;50.966;10.070;2023-05-14T07:11:54;8.35;;;7.28;;
22026;SDS011;11177;50.966;10.070;2023-05-14T07:14:21;8.80;;;7.47;;
22026;SDS011;11177;50.966;10.070;2023-05-14T07:16:48;8.18;;;7.30;;
22026;SDS011;11177;50.966;10.070;2023-05-14T07:19:14;7.95;;;7.15;;
22026;SDS011;11177;50.966;10.070;2023-05-14T07:21:42;8.45;;;7.25;;
22026;SDS011;11177;50.966;10.070;2023-05-14T07:24:09;7.97;;;6.70;;
22026;SDS011;11177;50.966;10.070;2023-05-14T07:26:35;8.85;;;6.60;;
22026;SDS011;11177;50.966;10.070;2023-05-14T07:29:02;10.98;;;7.35;;
22026;SDS011;11177;50.966;10.070;2023-05-14T07:31:30;9.75;;;6.93;;
22026;SDS011;11177;50.966;10.070;2023-05-14T07:33:57;6.60;;;5.90;;
22026;SDS011;11177;50.966;10.070;2023-05-14T07:36:24;6.50;;;5.68;;
22026;SDS011;11177;50.966;10.070;2023-05-14T07:38:51;7.07;;;6.07;;
22026;SDS011;11177;50.966;10.070;2023-05-14T07:41:18;6.75;;;6.05;;
22026;SDS011;11177;50.966;10.070;2023-05-14T07:43:45;6.40;;;5.80;;
22026;SDS011;11177;50.966;10.070;2023-05-14T07:46:12;6.80;;;6.10;;
22026;SDS011;11177;50.966;10.070;2023-05-14T07:48:39;7.47;;;5.53;;
22026;SDS011;11177;50.966;10.070;2023-05-14T07:51:06;6.65;;;5.40;;
22026;SDS011;11177;50.966;10.070;2023-05-14T07:53:33;6.40;;;5.80;;
22026;SDS011;11177;50.966;10.070;2023-05-14T07:56:00;7.30;;;5.40;;
22026;SDS011;11177;50.966;10.070;2023-05-14T07:58:27;6.78;;;5.22;;
22026;SDS011;11177;50.966;10.070;2023-05-14T08:00:54;6.15;;;5.47;;
22026;SDS011;11177;50.966;10.070;2023-05-14T08:03:22;7.57;;;5.30;;
22026;SDS011;11177;50.966;10.070;2023-05-14T08:05:49;6.35;;;5.28;;
22026;SDS011;11177;50.966;10.070;2023-05-14T08:08:17;5.30;;;4.80;;
22026;SDS011;11177;50.966;10.070;2023-05-14T08:10:44;4.93;;;4.50;;
22026;SDS011;11177;50.966;10.070;2023-05-14T08:13:11;6.57;;;4.97;;
22026;SDS011;11177;50.966;10.070;2023-05-14T08:15:37;6.97;;;5.35;;
22026;SDS011;11177;50.966;10.070;2023-05-14T08:18:04;7.45;;;5.25;;
22026;SDS011;11177;50.966;10.070;2023-05-14T08:20:31;5.72;;;4.80;;
22026;SDS011;11177;50.966;10.070;2023-05-14T08:22:58;6.82;;;5.20;;
22026;SDS011;11177;50.966;10.070;2023-05-14T08:25:25;6.07;;;5.15;;
22026;SDS011;11177;50.966;10.070;2023-05-14T08:27:52;5.40;;;4.90;;
22026;SDS011;11177;50.966;10.070;2023-05-14T08:30:19;6.60;;;5.20;;
22026;SDS011;11177;50.966;10.070;2023-05-14T08:32:47;5.18;;;4.68;;
22026;SDS011;11177;50.966;10.070;2023-05-14T08:35:15;6.38;;;4.80;;
22026;SDS011;11177;50.966;10.070;2023-05-14T08:37:44;4.70;;;4.30;;
22026;SDS011;11177;50.966;10.070;2023-05-14T08:40:11;4.90;;;4.50;;
22026;SDS011;11177;50.966;10.070;2023-05-14T08:42:39;5.30;;;4.50;;
22026;SDS011;11177;50.966;10.070;2023-05-14T08:45:19;5.40;;;4.90;;
22026;SDS011;11177;50.966;10.070;2023-05-14T08:47:48;5.88;;;5.20;;
22026;SDS011;11177;50.966;10.070;2023-05-14T08:50:16;6.40;;;5.05;;
22026;SDS011;11177;50.966;10.070;2023-05-14T08:52:47;5.43;;;4.90;;
22026;SDS011;11177;50.966;10.070;2023-05-14T08:55:14;8.95;;;5.35;;
22026;SDS011;11177;50.966;10.070;2023-05-14T08:57:41;4.80;;;4.40;;
22026;SDS011;11177;50.966;10.070;2023-05-14T09:00:12;6.90;;;5.03;;
22026;SDS011;11177;50.966;10.070;2023-05-14T09:02:41;5.00;;;4.50;;
22026;SDS011;11177;50.966;10.070;2023-05-14T09:05:10;5.85;;;4.93;;
22026;SDS011;11177;50.966;10.070;2023-05-14T09:07:37;5.25;;;4.75;;
22026;SDS011;11177;50.966;10.070;2023-05-14T09:10:05;5.63;;;4.65;;
22026;SDS011;11177;50.966;10.070;2023-05-14T09:12:34;5.35;;;4.72;;
22026;SDS011;11177;50.966;10.070;2023-05-14T09:15:02;5.00;;;4.47;;
22026;SDS011;11177;50.966;10.070;2023-05-14T09:17:30;6.55;;;4.60;;
22026;SDS011;11177;50.966;10.070;2023-05-14T09:19:57;5.35;;;4.30;;
22026;SDS011;11177;50.966;10.070;2023-05-14T09:22:25;4.90;;;4.40;;
22026;SDS011;11177;50.966;10.070;2023-05-14T09:25:02;4.70;;;4.30;;
22026;SDS011;11177;50.966;10.070;2023-05-14T09:27:32;5.22;;;4.40;;
22026;SDS011;11177;50.966;10.070;2023-05-14T09:30:12;5.10;;;4.60;;
22026;SDS011;11177;50.966;10.070;2023-05-14T09:32:40;5.90;;;4.30;;
22026;SDS011;11177;50.966;10.070;2023-05-14T09:35:16;6.18;;;4.28;;
22026;SDS011;11177;50.966;10.070;2023-05-14T09:37:46;4.22;;;3.92;;
22026;SDS011;11177;50.966;10.070;2023-05-14T09:40:15;5.68;;;4.30;;
22026;SDS011;11177;50.966;10.070;2023-05-14T09:42:42;6.10;;;4.30;;
22026;SDS011;11177;50.966;10.070;2023-05-14T09:45:09;5.05;;;4.35;;
22026;SDS011;11177;50.966;10.070;2023-05-14T09:47:37;4.57;;;4.18;;
22026;SDS011;11177;50.966;10.070;2023-05-14T09:50:04;4.03;;;3.67;;
22026;SDS011;11177;50.966;10.070;2023-05-14T09:52:34;4.72;;;3.63;;
22026;SDS011;11177;50.966;10.070;2023-05-14T09:55:01;4.35;;;3.50;;
22026;SDS011;11177;50.966;10.070;2023-05-14T09:57:28;5.03;;;3.80;;
22026;SDS011;11177;50.966;10.070;2023-05-14T09:59:55;7.18;;;4.20;;
22026;SDS011;11177;50.966;10.070;2023-05-14T10:02:26;3.97;;;3.60;;
22026;SDS011;11177;50.966;10.070;2023-05-14T10:04:59;3.80;;;3.40;;
22026;SDS011;11177;50.966;10.070;2023-05-14T10:07:28;3.35;;;3.10;;
22026;SDS011;11177;50.966;10.070;2023-05-14T10:10:00;4.07;;;3.22;;
22026;SDS011;11177;50.966;10.070;2023-05-14T10:12:31;3.88;;;3.47;;
22026;SDS011;11177;50.966;10.070;2023-05-14T10:15:00;5.47;;;4.00;;
22026;SDS011;11177;50.966;10.070;2023-05-14T10:17:39;4.00;;;3.60;;
22026;SDS011;11177;50.966;10.070;2023-05-14T10:20:07;3.88;;;2.97;;
22026;SDS011;11177;50.966;10.070;2023-05-14T10:22:35;3.72;;;3.33;;
22026;SDS011;11177;50.966;10.070;2023-05-14T10:25:02;6.10;;;3.38;;
22026;SDS011;11177;50.966;10.070;2023-05-14T10:27:30;4.88;;;3.47;;
22026;SDS011;11177;50.966;10.070;2023-05-14T10:29:57;4.47;;;3.60;;
22026;SDS011;11177;50.966;10.070;2023-05-14T10:32:24;4.20;;;3.80;;
22026;SDS011;11177;50.966;10.070;2023-05-14T10:34:51;4.22;;;3.90;;
22026;SDS011;11177;50.966;10.070;2023-05-14T10:37:23;5.15;;;3.80;;
22026;SDS011;11177;50.966;10.070;2023-05-14T10:42:38;4.70;;;3.60;;
22026;SDS011;11177;50.966;10.070;2023-05-14T10:45:06;4.43;;;4.03;;
22026;SDS011;11177;50.966;10.070;2023-05-14T10:47:35;4.35;;;3.53;;
22026;SDS011;11177;50.966;10.070;2023-05-14T10:50:03;7.82;;;4.03;;
22026;SDS011;11177;50.966;10.070;2023-05-14T10:52:32;5.45;;;3.22;;
22026;SDS011;11177;50.966;10.070;2023-05-14T10:55:04;3.88;;;3.30;;
22026;SDS011;11177;50.966;10.070;2023-05-14T10:57:36;3.42;;;3.13;;
22026;SDS011;11177;50.966;10.070;2023-05-14T11:00:04;3.58;;;3.28;;
22026;SDS011;11177;50.966;10.070;2023-05-14T11:02:35;6.30;;;3.90;;
22026;SDS011;11177;50.966;10.070;2023-05-14T11:05:10;3.50;;;3.20;;
22026;SDS011;11177;50.966;10.070;2023-05-14T11:07:43;3.72;;;3.20;;
22026;SDS011;11177;50.966;10.070;2023-05-14T11:10:12;3.20;;;2.90;;
22026;SDS011;11177;50.966;10.070;2023-05-14T11:12:44;4.25;;;3.10;;
22026;SDS011;11177;50.966;10.070;2023-05-14T11:15:16;3.13;;;2.83;;
22026;SDS011;11177;50.966;10.070;2023-05-14T11:17:47;3.40;;;3.00;;
22026;SDS011;11177;50.966;10.070;2023-05-14T11:20:16;5.25;;;2.75;;
22026;SDS011;11177;50.966;10.070;2023-05-14T11:22:43;5.45;;;3.70;;
22026;SDS011;11177;50.966;10.070;2023-05-14T11:25:11;3.13;;;2.83;;
22026;SDS011;11177;50.966;10.070;2023-05-14T11:27:42;2.95;;;2.65;;
22026;SDS011;11177;50.966;10.070;2023-05-14T11:30:19;3.28;;;2.53;;
22026;SDS011;11177;50.966;10.070;2023-05-14T11:32:46;2.97;;;2.70;;
22026;SDS011;11177;50.966;10.070;2023-05-14T11:35:15;2.60;;;2.40;;
22026;SDS011;11177;50.966;10.070;2023-05-14T11:37:42;2.88;;;2.60;;
22026;SDS011;11177;50.966;10.070;2023-05-14T11:40:16;3.63;;;2.63;;
22026;SDS011;11177;50.966;10.070;2023-05-14T11:42:43;2.60;;;2.40;;
22026;SDS011;11177;50.966;10.070;2023-05-14T11:45:11;2.60;;;2.40;;
22026;SDS011;11177;50.966;10.070;2023-05-14T11:47:39;2.80;;;2.60;;
22026;SDS011;11177;50.966;10.070;2023-05-14T11:50:06;2.72;;;2.53;;
22026;SDS011;11177;50.966;10.070;2023-05-14T11:52:46;2.45;;;2.25;;
22026;SDS011;11177;50.966;10.070;2023-05-14T11:55:16;2.60;;;2.40;;
22026;SDS011;11177;50.966;10.070;2023-05-14T11:57:43;3.00;;;2.35;;
22026;SDS011;11177;50.966;10.070;2023-05-14T12:00:10;2.70;;;2.50;;
22026;SDS011;11177;50.966;10.070;2023-05-14T12:02:47;3.05;;;2.50;;
22026;SDS011;11177;50.966;10.070;2023-05-14T12:05:16;2.83;;;2.50;;
22026;SDS011;11177;50.966;10.070;2023-05-14T12:07:55;2.80;;;2.60;;
22026;SDS011;11177;50.966;10.070;2023-05-14T12:10:24;2.60;;;2.40;;
22026;SDS011;11177;50.966;10.070;2023-05-14T12:12:52;2.65;;;2.45;;
22026;SDS011;11177;50.966;10.070;2023-05-14T12:15:18;2.47;;;2.30;;
22026;SDS011;11177;50.966;10.070;2023-05-14T12:17:50;2.60;;;2.40;;
22026;SDS011;11177;50.966;10.070;2023-05-14T12:20:17;4.35;;;2.33;;
22026;SDS011;11177;50.966;10.070;2023-05-14T12:22:44;2.75;;;2.15;;
22026;SDS011;11177;50.966;10.070;2023-05-14T12:25:11;3.80;;;2.20;;
22026;SDS011;11177;50.966;10.070;2023-05-14T12:27:39;2.78;;;1.95;;
22026;SDS011;11177;50.966;10.070;2023-05-14T12:30:07;1.90;;;1.80;;
22026;SDS011;11177;50.966;10.070;2023-05-14T12:32:37;2.42;;;2.05;;
22026;SDS011;11177;50.966;10.070;2023-05-14T12:35:07;2.97;;;2.15;;
22026;SDS011;11177;50.966;10.070;2023-05-14T12:37:34;2.88;;;2.58;;
22026;SDS011;11177;50.966;10.070;2023-05-14T12:40:03;2.92;;;2.63;;
22026;SDS011;11177;50.966;10.070;2023-05-14T12:42:35;3.17;;;2.60;;
22026;SDS011;11177;50.966;10.070;2023-05-14T12:45:02;3.05;;;2.30;;
22026;SDS011;11177;50.966;10.070;2023-05-14T12:47:32;2.70;;;2.50;;
22026;SDS011;11177;50.966;10.070;2023-05-14T12:50:00;2.58;;;2.38;;
22026;SDS011;11177;50.966;10.070;2023-05-14T12:52:27;3.63;;;2.60;;
22026;SDS011;11177;50.966;10.070;2023-05-14T12:55:04;3.97;;;2.85;;
22026;SDS011;11177;50.966;10.070;2023-05-14T12:57:31;4.25;;;3.10;;
22026;SDS011;11177;50.966;10.070;2023-05-14T13:00:01;4.65;;;3.40;;
22026;SDS011;11177;50.966;10.070;2023-05-14T13:02:32;3.65;;;3.30;;
22026;SDS011;11177;50.966;10.070;2023-05-14T13:05:08;3.10;;;2.80;;
22026;SDS011;11177;50.966;10.070;2023-05-14T13:07:35;3.10;;;2.90;;
22026;SDS011;11177;50.966;10.070;2023-05-14T13:10:02;5.22;;;3.38;;
22026;SDS011;11177;50.966;10.070;2023-05-14T13:12:31;2.92;;;2.67;;
22026;SDS011;11177;50.966;10.070;2023-05-14T13:14:58;3.10;;;2.80;;
22026;SDS011;11177;50.966;10.070;2023-05-14T13:17:25;3.60;;;3.30;;
22026;SDS011;11177;50.966;10.070;2023-05-14T13:19:52;3.22;;;2.92;;
22026;SDS011;11177;50.966;10.070;2023-05-14T13:22:22;3.70;;;3.10;;
22026;SDS011;11177;50.966;10.070;2023-05-14T13:24:49;6.07;;;3.20;;
22026;SDS011;11177;50.966;10.070;2023-05-14T13:27:16;4.00;;;3.35;;
22026;SDS011;11177;50.966;10.070;2023-05-14T13:29:42;3.38;;;3.08;;
22026;SDS011;11177;50.966;10.070;2023-05-14T13:32:09;2.70;;;2.50;;
22026;SDS011;11177;50.966;10.070;2023-05-14T13:34:36;3.00;;;2.70;;
22026;SDS011;11177;50.966;10.070;2023-05-14T13:37:03;4.07;;;2.72;;
22026;SDS011;11177;50.966;10.070;2023-05-14T13:39:30;2.50;;;2.30;;
22026;SDS011;11177;50.966;10.070;2023-05-14T13:41:56;2.70;;;2.50;;
22026;SDS011;11177;50.966;10.070;2023-05-14T13:44:23;2.97;;;2.67;;
22026;SDS011;11177;50.966;10.070;2023-05-14T13:46:50;3.45;;;2.47;;
22026;SDS011;11177;50.966;10.070;2023-05-14T13:49:17;2.60;;;2.40;;
22026;SDS011;11177;50.966;10.070;2023-05-14T13:51:44;2.75;;;2.42;;
22026;SDS011;11177;50.966;10.070;2023-05-14T13:54:11;4.43;;;2.88;;
22026;SDS011;11177;50.966;10.070;2023-05-14T13:56:38;3.10;;;2.90;;
22026;SDS011;11177;50.966;10.070;2023-05-14T13:59:05;2.88;;;2.67;;
22026;SDS011;11177;50.966;10.070;2023-05-14T14:01:32;3.53;;;2.95;;
22026;SDS011;11177;50.966;10.070;2023-05-14T14:03:59;3.08;;;2.55;;
22026;SDS011;11177;50.966;10.070;2023-05-14T14:06:26;5.45;;;3.10;;
22026;SDS011;11177;50.966;10.070;2023-05-14T14:08:53;4.05;;;2.88;;
22026;SDS011;11177;50.966;10.070;2023-05-14T14:11:20;3.47;;;3.17;;
22026;SDS011;11177;50.966;10.070;2023-05-14T14:13:47;4.05;;;3.03;;
22026;SDS011;11177;50.966;10.070;2023-05-14T14:16:14;3.30;;;3.00;;
22026;SDS011;11177;50.966;10.070;2023-05-14T14:18:41;3.20;;;3.00;;
22026;SDS011;11177;50.966;10.070;2023-05-14T14:21:08;4.20;;;3.58;;
22026;SDS011;11177;50.966;10.070;2023-05-14T14:23:35;3.88;;;3.08;;
22026;SDS011;11177;50.966;10.070;2023-05-14T14:26:02;4.63;;;3.30;;
22026;SDS011;11177;50.966;10.070;2023-05-14T14:28:29;3.75;;;2.60;;
22026;SDS011;11177;50.966;10.070;2023-05-14T14:30:56;2.63;;;2.38;;
22026;SDS011;11177;50.966;10.070;2023-05-14T14:33:25;2.85;;;2.65;;
22026;SDS011;11177;50.966;10.070;2023-05-14T14:35:53;4.38;;;3.20;;
22026;SDS011;11177;50.966;10.070;2023-05-14T14:38:20;3.65;;;3.33;;